Time;durP1;ratioP1;P1;durP2;ratioP2;P2;SDS_P1;SDS_P2;PMS_P1;PMS_P2;Temp;Humidity;BMP_temperature;BMP_pressure;BME280_temperature;BME280_humidity;BME280_pressure;Samples;Min_cycle;Max_cycle;Signal;HPM_P1;HPM_P2
2022/03/19 00:01:43;;;;;;;17.33;6.60;;;;;;;0.42;98.84;104780.00;5044832;28;20206;-41
2022/03/19 00:04:08;;;;;;;9.40;6.13;;;;;;;0.32;98.77;104781.06;5036390;28;20294;-43
2022/03/19 00:06:39;;;;;;;15.40;6.45;;;;;;;0.33;99.46;104764.44;5049290;28;20175;-45
2022/03/19 00:09:06;;;;;;;11.85;5.82;;;;;;;0.36;99.82;104769.91;5052190;28;20634;-40
2022/03/19 00:11:32;;;;;;;10.30;5.65;;;;;;;0.32;99.35;104759.97;5052418;28;20534;-48
2022/03/19 00:13:58;;;;;;;11.98;5.97;;;;;;;0.34;99.89;104774.19;5052747;28;20195;-43
2022/03/19 00:16:24;;;;;;;11.82;6.15;;;;;;;0.26;99.91;104767.47;5053150;28;20218;-42
2022/03/19 00:18:49;;;;;;;11.18;5.40;;;;;;;0.32;99.29;104788.06;5052891;28;20245;-40
2022/03/19 00:21:15;;;;;;;15.30;6.00;;;;;;;0.18;99.38;104790.69;5052995;28;20167;-46
2022/03/19 00:23:41;;;;;;;13.20;5.78;;;;;;;0.12;99.66;104789.34;5052089;28;20301;-44
2022/03/19 00:26:07;;;;;;;16.70;6.40;;;;;;;0.05;99.85;104788.03;5052687;28;20250;-44
2022/03/19 00:28:33;;;;;;;11.57;5.22;;;;;;;0.11;100.00;104785.81;5052847;28;20692;-43
2022/03/19 00:30:58;;;;;;;14.48;5.80;;;;;;;0.14;100.00;104790.38;5052784;28;20164;-42
2022/03/19 00:33:25;;;;;;;15.68;5.78;;;;;;;0.07;100.00;104796.06;5052063;28;20193;-43
2022/03/19 00:35:50;;;;;;;13.73;5.20;;;;;;;0.13;100.00;104792.09;5052544;28;20175;-42
2022/03/19 00:38:16;;;;;;;16.15;6.03;;;;;;;0.05;100.00;104802.94;5054603;22;20228;-45
2022/03/19 00:40:43;;;;;;;11.35;4.78;;;;;;;0.05;100.00;104792.38;5029989;28;20183;-44
2022/03/19 00:43:09;;;;;;;14.60;5.80;;;;;;;-0.01;100.00;104782.31;5031428;28;20176;-43
2022/03/19 00:45:35;;;;;;;13.98;5.63;;;;;;;-0.06;100.00;104787.28;5032609;28;20165;-46
2022/03/19 00:48:00;;;;;;;15.75;5.63;;;;;;;-0.16;100.00;104797.06;5032215;28;20657;-44
2022/03/19 00:50:26;;;;;;;15.82;5.57;;;;;;;-0.03;100.00;104789.19;5032135;28;20202;-46
2022/03/19 00:52:51;;;;;;;12.57;5.28;;;;;;;-0.04;100.00;104793.56;5031778;28;20633;-44
2022/03/19 00:55:16;;;;;;;12.68;4.75;;;;;;;0.00;100.00;104797.34;5031876;28;20715;-45
2022/03/19 00:57:45;;;;;;;12.50;4.60;;;;;;;-0.01;100.00;104788.50;5030660;28;20650;-46
2022/03/19 01:00:13;;;;;;;11.45;5.03;;;;;;;-0.02;100.00;104791.97;5032116;28;20160;-45
2022/03/19 01:02:44;;;;;;;11.38;4.65;;;;;;;-0.01;100.00;104800.78;5031306;28;20653;-47
2022/03/19 01:05:10;;;;;;;12.73;4.43;;;;;;;-0.01;100.00;104793.78;5000271;28;20193;-46
2022/03/19 01:07:41;;;;;;;8.23;4.32;;;;;;;-0.17;100.00;104795.25;4992354;28;20177;-46
2022/03/19 01:10:07;;;;;;;11.43;4.40;;;;;;;-0.10;100.00;104802.78;4992636;28;20213;-45
2022/03/19 01:12:33;;;;;;;8.73;4.40;;;;;;;0.01;100.00;104791.25;4991911;28;20180;-46
2022/03/19 01:14:58;;;;;;;14.77;4.88;;;;;;;0.14;100.00;104801.84;4992244;28;20205;-45
2022/03/19 01:17:23;;;;;;;12.38;4.13;;;;;;;0.21;100.00;104797.91;4992569;28;20225;-44
2022/03/19 01:19:57;;;;;;;10.52;4.32;;;;;;;0.16;100.00;104807.22;4992142;28;20585;-47
2022/03/19 01:22:22;;;;;;;10.15;4.22;;;;;;;0.18;100.00;104809.16;4991769;28;20248;-46
2022/03/19 01:24:48;;;;;;;12.13;4.93;;;;;;;0.04;100.00;104806.38;4992512;28;20735;-46
2022/03/19 01:27:14;;;;;;;12.90;4.07;;;;;;;-0.03;100.00;104807.66;4991886;28;20165;-46
2022/03/19 01:29:39;;;;;;;12.93;4.25;;;;;;;-0.03;100.00;104816.47;4992356;28;20684;-46
2022/03/19 01:32:05;;;;;;;10.05;3.42;;;;;;;0.00;100.00;104813.16;4991782;28;20219;-46
2022/03/19 01:34:30;;;;;;;9.05;3.63;;;;;;;-0.03;100.00;104811.19;4990617;28;20197;-47
2022/03/19 01:36:56;;;;;;;7.35;4.18;;;;;;;-0.01;100.00;104804.31;4992025;28;20700;-45
2022/03/19 01:39:22;;;;;;;9.00;3.20;;;;;;;0.05;100.00;104801.22;4991847;28;20364;-44
2022/03/19 01:41:48;;;;;;;15.90;4.43;;;;;;;0.03;100.00;104805.44;4991573;28;20197;-46
2022/03/19 01:44:21;;;;;;;9.32;3.30;;;;;;;-0.07;100.00;104803.88;4991803;28;20515;-46
2022/03/19 01:47:10;;;;;;;11.90;3.33;;;;;;;0.03;100.00;104799.28;4990480;28;20231;-46
2022/03/19 01:49:37;;;;;;;10.18;3.50;;;;;;;-0.01;100.00;104808.69;4990391;28;20344;-45
2022/03/19 01:52:06;;;;;;;15.10;3.70;;;;;;;-0.03;100.00;104808.56;4991479;28;20260;-46
2022/03/19 01:54:39;;;;;;;11.88;3.65;;;;;;;-0.05;100.00;104810.19;4991385;28;20692;-46
2022/03/19 01:57:05;;;;;;;11.07;3.30;;;;;;;0.03;100.00;104800.19;4991482;28;20169;-45
2022/03/19 01:59:34;;;;;;;8.48;3.20;;;;;;;0.04;100.00;104803.72;4991840;28;20174;-43
2022/03/19 02:02:03;;;;;;;8.82;3.60;;;;;;;-0.02;100.00;104809.50;4989592;28;20186;-46
2022/03/19 02:04:28;;;;;;;8.70;3.40;;;;;;;-0.04;100.00;104813.75;4990929;28;20724;-44
2022/03/19 02:06:54;;;;;;;15.45;3.70;;;;;;;-0.05;100.00;104810.19;4991673;28;20181;-46
2022/03/19 02:09:20;;;;;;;11.13;3.33;;;;;;;-0.17;100.00;104806.69;4991435;28;20209;-47
2022/03/19 02:11:46;;;;;;;6.68;2.85;;;;;;;-0.12;100.00;104804.38;4991279;28;20166;-46
2022/03/19 02:14:11;;;;;;;7.40;3.10;;;;;;;-0.10;100.00;104797.50;4991184;28;20189;-43
2022/03/19 02:16:39;;;;;;;7.07;2.60;;;;;;;-0.15;100.00;104807.72;4990861;28;20824;-45
2022/03/19 02:19:05;;;;;;;8.30;3.20;;;;;;;-0.11;100.00;104798.28;4991461;28;20170;-45
2022/03/19 02:21:50;;;;;;;9.00;3.08;;;;;;;-0.14;100.00;104809.53;4991241;28;20180;-46
2022/03/19 02:27:01;;;;;;;6.90;2.85;;;;;;;-0.02;100.00;104812.16;5010346;28;20248;-45
2022/03/19 02:29:27;;;;;;;8.57;3.15;;;;;;;-0.04;100.00;104811.13;5006314;28;20208;-45
2022/03/19 02:32:01;;;;;;;9.98;4.03;;;;;;;-0.13;100.00;104792.00;5009656;28;20189;-45
2022/03/19 02:34:27;;;;;;;10.15;3.42;;;;;;;-0.30;100.00;104798.75;5009450;28;20212;-48
2022/03/19 02:36:53;;;;;;;9.10;2.92;;;;;;;-0.27;100.00;104799.84;5010582;28;20172;-48
2022/03/19 02:39:28;;;;;;;8.30;3.10;;;;;;;-0.26;100.00;104808.69;5010316;28;20184;-47
2022/03/19 02:41:55;;;;;;;6.22;2.80;;;;;;;-0.20;100.00;104801.19;5010397;28;20585;-45
2022/03/19 02:44:21;;;;;;;10.82;3.15;;;;;;;-0.22;100.00;104808.06;5009760;28;20201;-47
2022/03/19 02:46:52;;;;;;;7.07;3.30;;;;;;;-0.11;100.00;104796.59;5008588;28;20200;-44
2022/03/19 02:49:18;;;;;;;16.05;4.72;;;;;;;-0.22;100.00;104813.34;5010108;28;20279;-47
2022/03/19 02:51:46;;;;;;;9.13;3.38;;;;;;;-0.14;100.00;104811.28;5009921;28;20176;-45
2022/03/19 02:54:14;;;;;;;11.05;3.22;;;;;;;-0.19;100.00;104800.41;5009730;28;20219;-44
2022/03/19 02:56:42;;;;;;;9.77;3.47;;;;;;;-0.23;100.00;104812.44;5010078;28;20195;-46
2022/03/19 02:59:12;;;;;;;12.95;3.75;;;;;;;-0.32;100.00;104796.00;5010284;28;20478;-44
2022/03/19 03:01:39;;;;;;;9.50;3.90;;;;;;;-0.30;100.00;104788.19;5009766;28;20545;-45
2022/03/19 03:04:05;;;;;;;9.40;3.03;;;;;;;-0.28;100.00;104797.13;5002273;28;20254;-46
2022/03/19 03:06:36;;;;;;;8.35;4.07;;;;;;;-0.41;100.00;104811.16;4990791;28;20594;-45
2022/03/19 03:09:03;;;;;;;8.82;3.35;;;;;;;-0.40;100.00;104805.06;4990292;28;20671;-44
2022/03/19 03:11:29;;;;;;;11.52;3.42;;;;;;;-0.47;100.00;104802.81;4990427;28;20240;-45
2022/03/19 03:13:54;;;;;;;8.98;3.38;;;;;;;-0.48;100.00;104803.59;4989700;28;20656;-45
2022/03/19 03:16:20;;;;;;;12.50;3.65;;;;;;;-0.66;100.00;104803.19;4990159;28;20916;-46
2022/03/19 03:18:46;;;;;;;13.13;4.20;;;;;;;-0.72;100.00;104798.41;4990483;28;20166;-44
2022/03/19 03:21:12;;;;;;;14.88;4.05;;;;;;;-0.82;100.00;104811.72;4989701;28;20173;-45
2022/03/19 03:23:38;;;;;;;10.30;3.72;;;;;;;-0.74;100.00;104800.03;4989383;28;20660;-45
2022/03/19 03:26:04;;;;;;;8.25;3.50;;;;;;;-0.70;100.00;104812.59;4989881;28;20216;-45
2022/03/19 03:28:29;;;;;;;7.03;3.28;;;;;;;-0.66;100.00;104809.41;4989791;28;20165;-45
2022/03/19 03:30:54;;;;;;;7.63;3.20;;;;;;;-0.57;100.00;104800.31;4990090;28;20177;-47
2022/03/19 03:33:20;;;;;;;14.13;4.20;;;;;;;-0.89;100.00;104807.72;4989345;28;20295;-45
2022/03/19 03:35:45;;;;;;;11.80;3.83;;;;;;;-1.01;100.00;104805.88;4990442;28;20284;-47
2022/03/19 03:38:11;;;;;;;15.48;3.95;;;;;;;-0.97;100.00;104800.97;4989866;28;20188;-46
2022/03/19 03:40:37;;;;;;;9.07;3.10;;;;;;;-0.85;100.00;104793.06;4990178;28;20620;-47
2022/03/19 03:43:03;;;;;;;11.43;3.33;;;;;;;-0.84;100.00;104805.41;4990715;28;20253;-45
2022/03/19 03:45:30;;;;;;;12.70;3.60;;;;;;;-0.87;100.00;104808.75;4993778;28;20166;-45
2022/03/19 03:47:56;;;;;;;9.55;3.60;;;;;;;-1.21;100.00;104810.59;4993880;28;20236;-47
2022/03/19 03:50:21;;;;;;;10.45;3.50;;;;;;;-1.16;100.00;104808.28;4993811;28;20193;-45
2022/03/19 03:52:47;;;;;;;8.05;3.85;;;;;;;-0.99;100.00;104804.28;4992468;28;20257;-45
2022/03/19 03:55:14;;;;;;;8.05;3.28;;;;;;;-0.88;100.00;104798.09;4993941;28;20197;-45
2022/03/19 03:57:40;;;;;;;20.67;4.68;;;;;;;-0.96;100.00;104792.28;4993715;28;20251;-46
2022/03/19 04:00:08;;;;;;;6.13;3.42;;;;;;;-0.96;100.00;104786.06;4993880;28;20173;-46
2022/03/19 04:02:40;;;;;;;8.50;3.25;;;;;;;-0.91;100.00;104787.34;4993379;28;20164;-47
2022/03/19 04:05:07;;;;;;;10.55;3.40;;;;;;;-0.91;100.00;104795.25;4992154;28;20279;-46
2022/03/19 04:07:33;;;;;;;10.95;3.78;;;;;;;-1.03;100.00;104789.97;4992424;28;20181;-47
2022/03/19 04:09:58;;;;;;;8.25;3.40;;;;;;;-1.05;100.00;104788.94;4993449;28;20208;-45
2022/03/19 04:12:24;;;;;;;11.68;3.85;;;;;;;-1.15;100.00;104791.72;4993212;28;20197;-44
2022/03/19 04:14:50;;;;;;;7.13;3.60;;;;;;;-1.05;100.00;104779.34;4993915;28;20349;-46
2022/03/19 04:17:16;;;;;;;9.98;3.38;;;;;;;-1.04;100.00;104772.38;4993775;28;20174;-46
2022/03/19 04:19:41;;;;;;;7.10;3.33;;;;;;;-0.99;100.00;104775.34;4993638;28;20180;-46
2022/03/19 04:22:07;;;;;;;13.10;3.60;;;;;;;-1.00;100.00;104776.16;4994576;28;20277;-44
2022/03/19 04:24:33;;;;;;;14.48;3.45;;;;;;;-1.16;100.00;104777.66;5010083;28;20227;-45
2022/03/19 04:26:58;;;;;;;7.03;2.78;;;;;;;-1.13;100.00;104771.69;5013269;28;20172;-46
2022/03/19 04:29:24;;;;;;;9.73;3.45;;;;;;;-1.09;100.00;104773.75;5011331;28;20193;-46
2022/03/19 04:31:49;;;;;;;8.65;3.22;;;;;;;-1.11;100.00;104770.09;5012885;28;20190;-47
2022/03/19 04:34:15;;;;;;;9.82;3.40;;;;;;;-1.13;100.00;104766.44;5012093;28;20243;-46
2022/03/19 04:36:41;;;;;;;9.35;3.00;;;;;;;-1.05;100.00;104758.31;5011468;28;20235;-46
2022/03/19 04:39:07;;;;;;;11.15;2.90;;;;;;;-1.08;100.00;104757.16;5012234;28;20257;-46
2022/03/19 04:41:34;;;;;;;14.93;4.43;;;;;;;-1.20;100.00;104765.06;5012391;28;20176;-46
2022/03/19 04:44:00;;;;;;;8.25;3.35;;;;;;;-1.19;100.00;104769.53;5012297;28;20205;-46
2022/03/19 04:46:25;;;;;;;8.55;3.40;;;;;;;-1.14;100.00;104768.13;5012161;28;20267;-46
2022/03/19 04:48:52;;;;;;;9.05;3.55;;;;;;;-1.06;100.00;104779.25;5012177;28;20196;-46
2022/03/19 04:51:20;;;;;;;15.23;4.35;;;;;;;-1.26;100.00;104781.31;5012734;28;20570;-46
2022/03/19 04:53:52;;;;;;;12.65;3.40;;;;;;;-1.19;100.00;104777.41;5011071;28;20588;-46
2022/03/19 04:56:20;;;;;;;11.82;3.75;;;;;;;-1.13;100.00;104774.34;5012691;28;21051;-45
2022/03/19 04:58:46;;;;;;;8.75;3.95;;;;;;;-1.27;100.00;104779.50;5012128;28;20164;-45
2022/03/19 05:01:12;;;;;;;10.18;3.55;;;;;;;-1.30;100.00;104780.97;5012902;28;20223;-46
2022/03/19 05:03:38;;;;;;;15.75;4.47;;;;;;;-1.42;100.00;104778.34;5008185;28;20688;-45
2022/03/19 05:06:03;;;;;;;9.95;4.07;;;;;;;-1.48;100.00;104788.41;4992514;28;20197;-46
2022/03/19 05:08:29;;;;;;;9.90;3.70;;;;;;;-1.42;100.00;104790.56;4992285;28;20256;-46
2022/03/19 05:11:12;;;;;;;12.07;4.13;;;;;;;-1.31;100.00;104784.41;4992211;28;20173;-46
2022/03/19 05:13:45;;;;;;;9.15;3.80;;;;;;;-1.41;100.00;104781.88;4991911;28;20193;-46
2022/03/19 05:16:11;;;;;;;11.05;4.32;;;;;;;-1.44;100.00;104785.22;4990761;28;20833;-45
2022/03/19 05:18:37;;;;;;;7.57;3.85;;;;;;;-1.38;100.00;104787.38;4992099;28;20180;-47
2022/03/19 05:21:03;;;;;;;10.25;3.70;;;;;;;-1.30;100.00;104792.41;4991764;28;20165;-46
2022/03/19 05:23:29;;;;;;;9.25;4.10;;;;;;;-1.27;100.00;104791.72;4991098;28;20189;-46
2022/03/19 05:25:55;;;;;;;9.80;4.30;;;;;;;-1.41;100.00;104789.78;4992284;28;20176;-46
2022/03/19 05:28:20;;;;;;;10.77;4.20;;;;;;;-1.37;100.00;104790.13;4990419;28;20177;-46
2022/03/19 05:30:46;;;;;;;9.98;3.88;;;;;;;-1.29;100.00;104791.63;4992007;28;20212;-45
2022/03/19 05:33:14;;;;;;;12.15;4.80;;;;;;;-1.26;100.00;104791.84;4991267;28;20177;-46
2022/03/19 05:35:42;;;;;;;8.45;4.25;;;;;;;-1.21;100.00;104797.44;4990056;28;20272;-48
2022/03/19 05:38:08;;;;;;;12.13;4.32;;;;;;;-1.18;100.00;104796.75;4991676;28;20678;-45
2022/03/19 05:40:34;;;;;;;13.90;4.60;;;;;;;-1.15;100.00;104802.25;4991304;28;20177;-45
2022/03/19 05:43:00;;;;;;;8.82;4.25;;;;;;;-1.13;100.00;104798.03;4991203;28;20668;-46
2022/03/19 05:45:25;;;;;;;13.73;4.85;;;;;;;-1.14;100.00;104796.16;4991460;28;20170;-46
2022/03/19 05:47:51;;;;;;;13.80;5.25;;;;;;;-1.15;100.00;104799.63;4990912;28;20607;-47
2022/03/19 05:50:17;;;;;;;10.65;4.88;;;;;;;-1.19;100.00;104795.84;4991254;28;20622;-46
2022/03/19 05:52:46;;;;;;;13.18;5.25;;;;;;;-1.17;100.00;104798.59;4990881;28;20612;-45
2022/03/19 05:55:13;;;;;;;11.38;4.90;;;;;;;-1.14;100.00;104801.44;4991250;28;20193;-45
2022/03/19 05:57:40;;;;;;;14.82;5.40;;;;;;;-1.06;100.00;104808.19;4991398;28;20292;-47
2022/03/19 06:00:11;;;;;;;17.55;5.13;;;;;;;-0.97;100.00;104807.94;4991640;28;20216;-45
2022/03/19 06:02:41;;;;;;;14.00;5.22;;;;;;;-0.94;100.00;104805.53;4990936;28;20271;-47
2022/03/19 06:05:07;;;;;;;15.60;6.22;;;;;;;-0.89;100.00;104812.97;4990121;28;20208;-47
2022/03/19 06:07:33;;;;;;;7.57;5.05;;;;;;;-0.79;100.00;104805.75;4991190;28;20201;-46
2022/03/19 06:09:58;;;;;;;13.60;6.20;;;;;;;-0.70;100.00;104799.44;4989531;28;20221;-46
2022/03/19 06:12:24;;;;;;;14.73;6.35;;;;;;;-0.42;100.00;104791.81;4990436;28;20220;-46
2022/03/19 06:14:53;;;;;;;14.05;6.70;;;;;;;0.01;100.00;104799.16;4989634;28;20209;-49
2022/03/19 06:17:21;;;;;;;14.23;6.38;;;;;;;0.35;100.00;104793.56;4991249;28;20174;-45
2022/03/19 06:19:47;;;;;;;15.88;6.47;;;;;;;0.59;100.00;104791.66;4991523;28;20247;-44
2022/03/19 06:22:13;;;;;;;14.98;7.00;;;;;;;0.68;100.00;104796.63;4990584;28;20174;-45
2022/03/19 06:24:38;;;;;;;12.98;6.60;;;;;;;0.80;100.00;104789.53;4991355;28;20692;-44
2022/03/19 06:27:04;;;;;;;13.95;7.82;;;;;;;0.99;100.00;104794.31;4990818;28;20170;-45
2022/03/19 06:29:30;;;;;;;25.20;8.68;;;;;;;1.39;100.00;104802.16;4991167;28;20193;-45
2022/03/19 06:31:58;;;;;;;19.77;7.95;;;;;;;1.61;100.00;104801.78;4991042;28;20533;-43
2022/03/19 06:34:23;;;;;;;15.15;6.90;;;;;;;1.88;100.00;104797.31;4989435;28;20197;-44
2022/03/19 06:39:33;;;;;;;11.52;6.82;;;;;;;2.01;100.00;104798.97;5017060;22;20278;-46
2022/03/19 06:41:58;;;;;;;18.35;7.32;;;;;;;2.09;100.00;104802.09;5029370;28;20180;-46
2022/03/19 06:44:24;;;;;;;20.38;7.88;;;;;;;2.39;100.00;104803.94;5028867;28;20214;-47
2022/03/19 06:46:49;;;;;;;18.17;8.60;;;;;;;2.81;100.00;104794.03;5030115;28;20592;-46
2022/03/19 06:49:15;;;;;;;20.52;8.23;;;;;;;3.04;100.00;104799.75;5030087;28;20211;-48
2022/03/19 06:51:40;;;;;;;17.85;7.72;;;;;;;3.33;100.00;104792.53;5029530;28;20237;-46
2022/03/19 06:54:06;;;;;;;25.05;7.75;;;;;;;3.61;100.00;104802.94;5029257;28;20275;-45
2022/03/19 06:56:32;;;;;;;20.90;7.80;;;;;;;4.01;100.00;104786.50;5029594;28;20183;-48
2022/03/19 06:58:57;;;;;;;19.88;7.28;;;;;;;4.02;99.13;104793.63;5030211;28;20595;-49
2022/03/19 07:01:23;;;;;;;17.88;6.28;;;;;;;4.31;98.15;104790.75;5030252;28;20191;-46
2022/03/19 07:03:48;;;;;;;20.10;6.15;;;;;;;4.39;96.80;104796.44;5024902;28;20291;-44
2022/03/19 07:06:15;;;;;;;17.38;5.95;;;;;;;4.58;96.53;104792.09;5010528;28;20255;-44
2022/03/19 07:08:42;;;;;;;15.38;5.53;;;;;;;4.74;95.11;104794.66;5024862;28;20184;-43
2022/03/19 07:11:08;;;;;;;16.42;6.07;;;;;;;4.90;94.03;104788.38;5030051;28;20168;-45
2022/03/19 07:13:33;;;;;;;15.77;4.55;;;;;;;5.01;93.54;104783.56;5025158;28;20716;-42
2022/03/19 07:15:59;;;;;;;13.82;4.72;;;;;;;4.71;93.38;104791.88;5030242;28;20180;-45
2022/03/19 07:18:25;;;;;;;18.02;4.43;;;;;;;4.90;92.30;104788.38;5029561;28;20168;-46
2022/03/19 07:20:50;;;;;;;21.85;5.45;;;;;;;5.20;91.90;104786.28;5024310;28;20195;-45
2022/03/19 07:23:19;;;;;;;13.65;4.75;;;;;;;4.81;91.97;104787.91;5025717;28;20227;-44
2022/03/19 07:25:44;;;;;;;21.85;4.45;;;;;;;5.41;91.49;104785.50;5029637;28;20590;-43
2022/03/19 07:28:13;;;;;;;14.10;4.53;;;;;;;5.40;90.88;104788.97;5029850;28;20242;-43
2022/03/19 07:30:40;;;;;;;13.30;3.55;;;;;;;5.51;90.11;104791.31;5028278;28;20199;-44
2022/03/19 07:33:06;;;;;;;17.20;4.13;;;;;;;5.46;90.07;104782.19;5025126;28;20176;-44
2022/03/19 07:35:32;;;;;;;14.75;4.72;;;;;;;5.46;89.57;104791.94;5028518;28;20592;-46
2022/03/19 07:37:58;;;;;;;15.25;4.15;;;;;;;5.41;89.17;104793.47;5029673;28;20202;-50
2022/03/19 07:43:10;;;;;;;12.98;3.70;;;;;;;6.01;88.90;104781.16;5018877;28;20177;-45
2022/03/19 07:45:37;;;;;;;16.15;3.83;;;;;;;6.19;86.73;104771.34;5009815;28;20593;-49
2022/03/19 07:48:03;;;;;;;13.65;4.43;;;;;;;6.35;85.62;104775.56;5007872;28;20176;-51
2022/03/19 07:50:29;;;;;;;18.98;3.58;;;;;;;6.02;85.73;104779.44;5007754;28;20711;-44
2022/03/19 07:52:55;;;;;;;14.07;3.72;;;;;;;6.17;85.77;104762.38;5009117;28;20537;-45
2022/03/19 07:55:21;;;;;;;14.52;3.40;;;;;;;6.33;85.39;104766.59;5009776;28;20168;-46
2022/03/19 07:57:47;;;;;;;12.27;3.42;;;;;;;6.81;83.72;104761.50;5009966;28;20200;-43
2022/03/19 08:00:13;;;;;;;16.42;3.35;;;;;;;6.35;83.70;104761.34;5010158;28;20210;-45
2022/03/19 08:02:41;;;;;;;13.20;3.47;;;;;;;6.32;83.18;104764.81;5037443;23;20227;-48
2022/03/19 08:05:08;;;;;;;10.35;3.13;;;;;;;6.24;82.58;104752.91;5032582;28;20571;-46
2022/03/19 08:07:34;;;;;;;10.45;3.05;;;;;;;6.39;82.70;104765.97;5029303;28;20179;-48
2022/03/19 08:10:01;;;;;;;10.98;2.55;;;;;;;6.18;82.03;104772.16;5028720;28;20291;-47
2022/03/19 08:12:27;;;;;;;12.63;2.95;;;;;;;6.50;82.78;104758.44;5028939;28;20169;-46
2022/03/19 08:14:52;;;;;;;9.65;3.00;;;;;;;6.92;81.99;104764.59;5029003;28;20188;-47
2022/03/19 08:17:18;;;;;;;10.95;2.88;;;;;;;6.53;81.50;104764.78;5030761;28;20275;-48
2022/03/19 08:19:45;;;;;;;11.68;2.75;;;;;;;6.32;81.98;104774.53;5048348;28;20239;-46
2022/03/19 08:22:11;;;;;;;18.77;2.95;;;;;;;6.56;81.56;104780.00;5046383;28;20178;-46
2022/03/19 08:24:37;;;;;;;12.10;3.53;;;;;;;6.36;82.00;104782.75;5048113;28;20191;-48
2022/03/19 08:27:03;;;;;;;11.30;3.08;;;;;;;6.57;81.75;104788.03;5047886;28;20175;-47
2022/03/19 08:29:29;;;;;;;13.65;2.58;;;;;;;6.52;80.73;104778.97;5028495;28;20362;-47
2022/03/19 08:31:54;;;;;;;12.23;2.72;;;;;;;6.85;79.34;104765.22;5031931;28;20168;-47
2022/03/19 08:34:21;;;;;;;13.73;2.90;;;;;;;6.97;79.32;104772.78;5031676;28;20242;-47
2022/03/19 08:36:46;;;;;;;10.07;2.50;;;;;;;6.00;79.91;104770.47;5036299;28;20211;-47
2022/03/19 08:41:57;;;;;;;10.68;2.88;;;;;;;6.74;79.65;104774.53;5052303;28;20363;-43
2022/03/19 08:44:23;;;;;;;9.30;2.50;;;;;;;7.13;78.42;104771.66;5051638;28;20210;-44
2022/03/19 08:46:48;;;;;;;7.57;2.45;;;;;;;6.85;78.06;104778.53;5052088;28;20175;-49
2022/03/19 08:49:14;;;;;;;11.02;2.58;;;;;;;6.44;78.90;104771.50;5052144;28;20215;-44
2022/03/19 08:51:39;;;;;;;10.80;3.00;;;;;;;7.00;78.50;104775.59;5051705;28;20242;-44
2022/03/19 08:54:07;;;;;;;9.77;2.92;;;;;;;6.81;77.96;104765.94;5051479;28;20223;-47
2022/03/19 08:56:34;;;;;;;11.50;3.25;;;;;;;6.95;77.25;104775.41;5050539;28;20175;-47
2022/03/19 08:59:00;;;;;;;15.50;2.83;;;;;;;6.79;76.48;104778.28;5052069;28;20617;-45
2022/03/19 09:01:26;;;;;;;9.52;2.78;;;;;;;6.56;75.82;104786.25;5051400;28;20187;-47
2022/03/19 09:03:51;;;;;;;8.85;2.58;;;;;;;6.66;76.53;104782.19;5040739;28;20188;-48
2022/03/19 09:06:17;;;;;;;13.90;3.05;;;;;;;6.51;77.39;104777.13;5012357;28;20267;-45
2022/03/19 09:08:43;;;;;;;7.43;2.47;;;;;;;7.27;77.08;104774.88;5011588;28;20227;-46
2022/03/19 09:11:10;;;;;;;10.77;2.88;;;;;;;6.91;76.23;104780.53;5011793;28;20629;-46
2022/03/19 09:13:36;;;;;;;13.65;3.28;;;;;;;6.89;76.81;104753.84;5010867;28;20307;-46
2022/03/19 09:16:05;;;;;;;13.52;3.13;;;;;;;7.11;76.19;104771.59;5011772;28;20282;-46
2022/03/19 09:18:31;;;;;;;12.32;3.08;;;;;;;7.10;76.60;104759.09;5011718;28;20227;-47
2022/03/19 09:20:57;;;;;;;8.00;2.40;;;;;;;7.34;75.96;104764.47;5011247;28;20181;-48
2022/03/19 09:23:23;;;;;;;4.40;2.30;;;;;;;7.08;75.27;104755.44;5010964;28;20678;-46
2022/03/19 09:25:49;;;;;;;9.25;2.70;;;;;;;7.80;74.40;104749.28;5011231;28;20165;-48
2022/03/19 09:28:15;;;;;;;11.98;2.60;;;;;;;8.14;73.30;104751.41;5011421;28;20260;-46
2022/03/19 09:30:40;;;;;;;10.75;2.83;;;;;;;7.84;73.29;104749.44;5011378;28;20207;-46
2022/03/19 09:33:06;;;;;;;8.95;2.55;;;;;;;7.64;74.51;104753.16;5010597;28;20665;-45
2022/03/19 09:35:32;;;;;;;12.07;2.90;;;;;;;7.53;74.30;104749.19;5011282;28;20181;-46
2022/03/19 09:37:57;;;;;;;5.63;2.40;;;;;;;7.59;73.45;104757.44;5010801;28;20187;-45
2022/03/19 09:40:23;;;;;;;8.65;3.03;;;;;;;7.50;75.52;104749.06;5011236;28;20181;-46
2022/03/19 09:42:50;;;;;;;9.93;2.88;;;;;;;7.33;75.28;104759.09;5010831;28;20511;-46
2022/03/19 09:45:19;;;;;;;9.10;2.95;;;;;;;7.61;74.96;104755.72;5010786;28;20654;-46
2022/03/19 09:47:45;;;;;;;9.43;3.10;;;;;;;7.20;76.09;104753.28;5009363;28;20644;-46
2022/03/19 09:50:11;;;;;;;9.20;3.17;;;;;;;7.19;74.95;104758.53;5010826;28;20234;-46
2022/03/19 09:52:37;;;;;;;6.13;2.75;;;;;;;7.32;75.44;104757.28;5010427;28;20558;-44
2022/03/19 09:55:03;;;;;;;7.20;2.60;;;;;;;7.88;74.73;104744.25;5011085;28;20721;-45
2022/03/19 09:57:29;;;;;;;7.50;2.70;;;;;;;8.34;73.61;104753.88;5010716;28;20184;-45
2022/03/19 09:59:55;;;;;;;11.13;3.45;;;;;;;7.69;74.59;104751.56;5011068;28;20197;-44
2022/03/19 10:02:20;;;;;;;6.13;2.60;;;;;;;7.95;73.76;104754.28;5009651;28;20235;-44
2022/03/19 10:04:50;;;;;;;14.20;3.00;;;;;;;7.19;73.88;104753.22;5010760;28;20200;-46
2022/03/19 10:10:07;;;;;;;8.88;2.47;;;;;;;7.52;74.47;104752.69;5010609;28;20207;-46
2022/03/19 10:12:33;;;;;;;6.78;2.20;;;;;;;7.46;74.40;104741.81;5009995;28;20233;-44
2022/03/19 10:14:59;;;;;;;8.27;2.28;;;;;;;7.85;73.43;104739.69;5010186;28;20203;-47
2022/03/19 10:17:28;;;;;;;6.53;2.83;;;;;;;7.36;73.64;104743.19;5010693;28;20687;-48
2022/03/19 10:19:58;;;;;;;6.70;2.47;;;;;;;7.61;74.06;104753.06;5010556;28;20196;-48
2022/03/19 10:22:25;;;;;;;5.60;2.63;;;;;;;7.78;73.24;104733.25;5010217;28;20350;-47
2022/03/19 10:25:05;;;;;;;4.78;2.60;;;;;;;7.81;73.40;104737.78;5010285;28;20189;-45
2022/03/19 10:27:36;;;;;;;8.90;2.72;;;;;;;7.28;74.53;104742.00;5010500;28;20271;-48
2022/03/19 10:30:20;;;;;;;8.07;2.78;;;;;;;7.18;75.56;104746.97;5010625;28;20280;-47
2022/03/19 10:32:53;;;;;;;10.07;3.10;;;;;;;7.78;75.39;104727.91;5009813;28;20569;-47
2022/03/19 10:35:30;;;;;;;7.97;2.85;;;;;;;7.64;73.90;104732.72;5009107;28;20697;-44
2022/03/19 10:37:56;;;;;;;9.68;2.83;;;;;;;7.73;73.50;104723.22;5010061;28;20200;-45
2022/03/19 10:40:22;;;;;;;10.45;2.95;;;;;;;7.83;73.34;104731.63;5008882;28;20177;-47
2022/03/19 10:42:50;;;;;;;6.30;2.80;;;;;;;7.58;73.53;104737.81;5009513;28;20169;-47
2022/03/19 10:45:21;;;;;;;7.50;2.90;;;;;;;7.69;74.18;104729.31;5008902;28;20212;-46
2022/03/19 10:47:47;;;;;;;8.52;2.85;;;;;;;7.82;72.57;104732.47;5010351;28;20272;-49
2022/03/19 10:50:24;;;;;;;4.78;2.08;;;;;;;7.83;71.60;104733.41;5009750;28;20188;-46
2022/03/19 10:52:51;;;;;;;5.32;2.35;;;;;;;7.61;72.96;104727.28;5009158;28;20666;-49
2022/03/19 10:55:18;;;;;;;5.97;2.40;;;;;;;7.57;73.48;104737.78;5009295;28;20299;-46
2022/03/19 10:57:45;;;;;;;5.68;2.10;;;;;;;7.83;72.87;104723.63;5009607;28;20632;-46
2022/03/19 11:00:11;;;;;;;5.70;2.60;;;;;;;7.71;72.65;104722.25;5009946;28;20184;-45
2022/03/19 11:02:48;;;;;;;10.90;2.63;;;;;;;7.89;73.25;104714.00;5009290;28;20590;-48
2022/03/19 11:05:17;;;;;;;7.93;2.70;;;;;;;7.77;72.28;104718.06;5008713;28;20266;-46
2022/03/19 11:07:44;;;;;;;5.93;2.47;;;;;;;7.84;72.76;104716.50;5009929;28;20190;-47
2022/03/19 11:10:11;;;;;;;4.18;2.53;;;;;;;7.94;72.00;104705.31;5008692;28;20192;-47
2022/03/19 11:12:40;;;;;;;4.57;2.10;;;;;;;8.31;71.22;104706.56;5009588;28;20568;-46
2022/03/19 11:15:09;;;;;;;5.90;2.30;;;;;;;7.90;71.50;104702.47;5009924;28;20570;-47
2022/03/19 11:17:38;;;;;;;8.52;3.13;;;;;;;7.62;73.31;104698.81;5009661;28;20271;-48
2022/03/19 11:20:07;;;;;;;6.30;2.45;;;;;;;7.88;71.98;104698.84;5009781;28;20616;-45
2022/03/19 11:22:42;;;;;;;5.07;2.58;;;;;;;8.13;72.38;104701.50;5009435;28;20261;-47
2022/03/19 11:25:13;;;;;;;6.75;2.78;;;;;;;7.87;71.41;104700.63;5024747;28;20687;-45
2022/03/19 11:27:42;;;;;;;6.43;2.42;;;;;;;8.05;70.99;104693.22;5009649;28;20246;-47
2022/03/19 11:30:25;;;;;;;3.50;2.33;;;;;;;8.19;71.20;104683.00;5009568;28;20188;-46
2022/03/19 11:33:05;;;;;;;5.40;2.20;;;;;;;8.11;68.65;104696.97;5009280;28;20419;-47